createdAt,value
2023-04-30T00:00:39.491Z,75.15
2023-04-30T00:04:00.919Z,75.62
2023-04-30T00:07:03.280Z,75.71
2023-04-30T00:10:05.641Z,75.44
2023-04-30T00:13:07.681Z,75.24
2023-04-30T00:16:09.468Z,74.97
2023-04-30T00:19:11.177Z,74.61
2023-04-30T00:22:12.904Z,74.66
2023-04-30T00:25:14.713Z,74.97
2023-04-30T00:28:16.448Z,75.08
2023-04-30T00:31:18.081Z,75.01
2023-04-30T00:34:19.860Z,74.80
2023-04-30T00:37:21.487Z,75.20
2023-04-30T00:40:23.280Z,74.88
2023-04-30T00:43:25.025Z,75.52
2023-04-30T00:46:26.964Z,75.80
2023-04-30T00:49:28.854Z,76.14
2023-04-30T00:52:30.601Z,76.22
2023-04-30T00:55:32.196Z,76.15
2023-04-30T00:58:33.874Z,76.35
2023-04-30T01:01:35.752Z,75.98
2023-04-30T01:04:37.498Z,76.22
2023-04-30T01:07:39.296Z,76.31
2023-04-30T01:10:51.816Z,76.03
2023-04-30T01:14:17.883Z,76.16
2023-04-30T01:17:45.567Z,76.49
2023-04-30T01:20:54.563Z,76.50
2023-04-30T01:24:17.558Z,76.20
2023-04-30T01:27:19.147Z,76.34
2023-04-30T01:30:21.485Z,76.79
2023-04-30T01:33:23.081Z,76.80
2023-04-30T01:37:04.067Z,76.67
2023-04-30T01:40:12.559Z,76.95
2023-04-30T01:43:14.233Z,76.76
2023-04-30T01:46:24.454Z,77.22
2023-04-30T01:49:33.127Z,77.14
2023-04-30T01:52:42.371Z,77.04
2023-04-30T01:55:50.160Z,77.17
2023-04-30T01:58:52.474Z,77.62
2023-04-30T02:01:54.293Z,77.82
2023-04-30T02:04:56.115Z,77.18
2023-04-30T02:07:57.912Z,77.04
2023-04-30T02:10:59.582Z,77.67
2023-04-30T02:14:01.156Z,77.98
2023-04-30T02:17:02.811Z,77.13
2023-04-30T02:20:05.160Z,77.02
2023-04-30T02:23:06.930Z,76.86
2023-04-30T02:26:08.638Z,76.75
2023-04-30T02:29:10.263Z,76.72
2023-04-30T02:32:11.896Z,76.94
2023-04-30T02:35:13.464Z,77.13
2023-04-30T02:38:15.271Z,76.98
2023-04-30T02:41:16.845Z,77.18
2023-04-30T02:44:18.546Z,76.97
2023-04-30T02:47:20.153Z,77.14
2023-04-30T02:50:21.888Z,77.40
2023-04-30T02:53:23.501Z,77.19
2023-04-30T02:56:25.078Z,77.31
2023-04-30T02:59:26.809Z,77.26
2023-04-30T03:02:28.449Z,77.55
2023-04-30T03:05:30.301Z,77.44
2023-04-30T03:08:31.999Z,78.00
2023-04-30T03:11:33.632Z,77.57
2023-04-30T03:14:35.302Z,77.84
2023-04-30T03:17:36.984Z,77.91
2023-04-30T03:20:38.666Z,77.85
2023-04-30T03:23:40.244Z,77.85
2023-04-30T03:26:42.744Z,77.90
2023-04-30T03:29:44.466Z,78.17
2023-04-30T03:32:46.157Z,78.21
2023-04-30T03:35:47.802Z,78.03
2023-04-30T03:38:49.444Z,77.89
2023-04-30T03:41:51.185Z,78.61
2023-04-30T03:44:52.875Z,78.71
2023-04-30T03:47:54.608Z,78.63
2023-04-30T03:50:56.314Z,79.28
2023-04-30T03:53:58.006Z,79.12
2023-04-30T03:57:00.531Z,78.94
2023-04-30T04:00:03.108Z,79.19
2023-04-30T04:03:05.022Z,78.72
2023-04-30T04:06:07.113Z,78.85
2023-04-30T04:09:09.024Z,79.00
2023-04-30T04:12:10.668Z,79.01
2023-04-30T04:15:12.536Z,78.93
2023-04-30T04:18:14.204Z,78.83
2023-04-30T04:21:16.695Z,78.71
2023-04-30T04:24:18.302Z,78.83
2023-04-30T04:27:19.917Z,78.93
2023-04-30T04:30:21.751Z,79.19
2023-04-30T04:33:23.625Z,79.12
2023-04-30T04:36:26.503Z,78.93
2023-04-30T04:39:28.210Z,78.87
2023-04-30T04:42:29.823Z,78.75
2023-04-30T04:45:31.526Z,78.76
2023-04-30T04:48:33.204Z,78.69
2023-04-30T04:51:34.850Z,78.55
2023-04-30T04:54:38.475Z,78.62
2023-04-30T04:57:40.200Z,78.34
2023-04-30T05:00:41.884Z,78.39
2023-04-30T05:03:44.069Z,78.44
2023-04-30T05:06:46.028Z,78.33
2023-04-30T05:09:47.802Z,78.43
2023-04-30T05:12:49.406Z,78.97
2023-04-30T05:15:53.111Z,78.64
2023-04-30T05:18:55.103Z,78.80
2023-04-30T05:21:56.720Z,78.45
2023-04-30T05:24:58.421Z,78.17
2023-04-30T05:28:00.122Z,78.21
2023-04-30T05:31:01.910Z,78.14
2023-04-30T05:34:03.660Z,77.99
2023-04-30T05:37:05.491Z,78.00
2023-04-30T05:40:10.549Z,78.00
2023-04-30T05:43:12.367Z,77.95
2023-04-30T05:46:14.649Z,77.95
2023-04-30T05:49:16.560Z,78.01
2023-04-30T05:52:18.240Z,77.92
2023-04-30T05:55:20.191Z,77.91
2023-04-30T05:58:22.056Z,78.16
2023-04-30T06:01:25.235Z,78.04
2023-04-30T06:04:26.939Z,78.14
2023-04-30T06:07:28.734Z,78.02
2023-04-30T06:10:30.448Z,78.29
2023-04-30T06:13:32.532Z,78.22
2023-04-30T06:16:34.148Z,78.07
2023-04-30T06:19:35.901Z,78.32
2023-04-30T06:22:37.516Z,78.23
2023-04-30T06:25:39.346Z,78.11
2023-04-30T06:28:41.303Z,78.28
2023-04-30T06:31:43.085Z,78.26
2023-04-30T06:34:44.791Z,78.23
2023-04-30T06:37:46.392Z,78.22
2023-04-30T06:40:48.120Z,78.10
2023-04-30T06:43:49.758Z,78.33
2023-04-30T06:46:51.362Z,78.46
2023-04-30T06:49:53.381Z,78.21
2023-04-30T06:52:55.261Z,78.30
2023-04-30T06:55:56.975Z,78.39
2023-04-30T06:58:58.592Z,78.53
2023-04-30T07:02:00.709Z,78.40
2023-04-30T07:05:02.711Z,78.51
2023-04-30T07:08:04.912Z,78.54
2023-04-30T07:11:06.671Z,78.51
2023-04-30T07:14:08.424Z,78.53
2023-04-30T07:17:10.208Z,78.56
2023-04-30T07:20:12.757Z,78.38
2023-04-30T07:23:14.365Z,78.42
2023-04-30T07:26:15.977Z,78.49
2023-04-30T07:29:17.736Z,78.62
2023-04-30T07:32:19.374Z,78.72
2023-04-30T07:35:21.180Z,78.68
2023-04-30T07:38:22.932Z,78.70
2023-04-30T07:41:25.262Z,78.78
2023-04-30T07:44:26.872Z,78.52
2023-04-30T07:47:28.563Z,78.58
2023-04-30T07:50:30.923Z,78.27
2023-04-30T07:53:32.645Z,78.11
2023-04-30T07:56:34.509Z,78.30
2023-04-30T07:59:36.109Z,78.05
2023-04-30T08:02:37.777Z,77.75
2023-04-30T08:05:39.742Z,77.53
2023-04-30T08:08:41.345Z,77.20
2023-04-30T08:11:42.933Z,76.98
2023-04-30T08:14:44.787Z,76.86
2023-04-30T08:17:46.475Z,76.28
2023-04-30T08:20:48.232Z,76.32
2023-04-30T08:23:49.821Z,76.21
2023-04-30T08:26:53.387Z,75.61
2023-04-30T08:29:56.041Z,74.90
2023-04-30T08:32:58.016Z,75.33
2023-04-30T08:35:59.643Z,75.04
2023-04-30T08:39:01.226Z,74.90
2023-04-30T08:42:04.549Z,75.02
2023-04-30T08:45:08.934Z,74.17
2023-04-30T08:48:11.278Z,73.79
2023-04-30T08:51:13.120Z,73.92
2023-04-30T08:54:14.779Z,73.47
2023-04-30T08:57:16.418Z,73.16
2023-04-30T09:00:18.383Z,72.83
2023-04-30T09:03:20.582Z,72.24
2023-04-30T09:06:22.482Z,71.66
2023-04-30T09:09:31.090Z,69.45
2023-04-30T09:12:32.925Z,70.01
2023-04-30T09:15:36.887Z,69.63
2023-04-30T09:18:41.933Z,69.56
2023-04-30T09:21:43.633Z,68.05
2023-04-30T09:24:50.361Z,68.14
2023-04-30T09:28:08.324Z,68.18
2023-04-30T09:31:20.220Z,67.23
2023-04-30T09:34:34.328Z,66.20
2023-04-30T09:37:39.066Z,64.93
2023-04-30T09:40:42.225Z,62.86
2023-04-30T09:43:45.255Z,63.66
2023-04-30T09:46:46.976Z,63.56
2023-04-30T09:49:50.620Z,63.51
2023-04-30T09:52:53.921Z,63.08
2023-04-30T09:55:58.540Z,61.19
2023-04-30T09:59:00.906Z,59.63
2023-04-30T10:02:04.780Z,59.93
2023-04-30T10:05:07.010Z,59.49
2023-04-30T10:08:15.417Z,58.31
2023-04-30T10:11:21.674Z,58.56
2023-04-30T10:14:24.548Z,58.65
2023-04-30T10:17:28.278Z,57.78
2023-04-30T10:20:32.098Z,54.44
2023-04-30T10:23:34.095Z,55.70
2023-04-30T10:26:35.952Z,57.42
2023-04-30T10:29:37.607Z,57.51
2023-04-30T10:32:47.011Z,57.60
2023-04-30T10:36:01.669Z,57.68
2023-04-30T10:39:03.538Z,56.41
2023-04-30T10:42:06.806Z,56.53
2023-04-30T10:45:10.531Z,55.80
2023-04-30T10:48:15.125Z,55.39
2023-04-30T10:51:17.678Z,54.95
2023-04-30T10:54:25.843Z,53.88
2023-04-30T10:57:29.562Z,54.39
2023-04-30T11:00:31.164Z,53.46
2023-04-30T11:03:34.929Z,52.86
2023-04-30T11:06:54.827Z,52.37
2023-04-30T11:09:57.688Z,50.50
2023-04-30T11:13:04.846Z,51.27
2023-04-30T11:16:06.867Z,50.65
2023-04-30T11:19:13.788Z,50.45
2023-04-30T11:22:17.085Z,49.24
2023-04-30T11:25:19.870Z,49.98
2023-04-30T11:28:24.641Z,48.10
2023-04-30T11:31:33.522Z,47.66
2023-04-30T11:34:35.221Z,47.95
2023-04-30T11:37:39.655Z,47.48
2023-04-30T11:40:41.541Z,49.16
2023-04-30T11:43:43.430Z,48.45
2023-04-30T11:46:45.136Z,47.92
2023-04-30T11:49:46.749Z,46.77
2023-04-30T11:52:52.706Z,46.82
2023-04-30T11:55:54.541Z,44.72
2023-04-30T11:58:56.372Z,45.10
2023-04-30T12:01:58.471Z,45.40
2023-04-30T12:05:00.058Z,45.15
2023-04-30T12:08:04.728Z,46.37
2023-04-30T12:11:19.911Z,44.84
2023-04-30T12:14:25.150Z,44.15
2023-04-30T12:17:36.021Z,42.89
2023-04-30T12:20:38.207Z,43.04
2023-04-30T12:23:40.070Z,43.44
2023-04-30T12:26:42.135Z,43.56
2023-04-30T12:29:44.312Z,44.01
2023-04-30T12:32:48.865Z,44.75
2023-04-30T12:35:53.114Z,41.90
2023-04-30T12:39:02.372Z,41.84
2023-04-30T12:42:04.067Z,42.63
2023-04-30T12:45:06.520Z,42.09
2023-04-30T12:48:08.330Z,42.78
2023-04-30T12:51:10.843Z,41.43
2023-04-30T12:54:12.514Z,40.05
2023-04-30T12:57:14.157Z,39.65
2023-04-30T13:00:15.736Z,40.49
2023-04-30T13:03:21.520Z,40.79
2023-04-30T13:06:23.396Z,40.36
2023-04-30T13:09:25.205Z,40.00
2023-04-30T13:12:26.803Z,39.95
2023-04-30T13:15:28.710Z,38.60
2023-04-30T13:18:30.457Z,39.14
2023-04-30T13:21:32.066Z,40.02
2023-04-30T13:24:33.677Z,38.42
2023-04-30T13:27:36.211Z,38.43
2023-04-30T13:30:37.857Z,36.80
2023-04-30T13:33:39.470Z,38.24
2023-04-30T13:36:41.204Z,36.91
2023-04-30T13:39:42.907Z,36.49
2023-04-30T13:42:46.471Z,36.98
2023-04-30T13:45:48.207Z,37.13
2023-04-30T13:48:49.866Z,35.68
2023-04-30T13:51:51.515Z,34.30
2023-04-30T13:54:53.079Z,35.10
2023-04-30T13:57:54.709Z,35.87
2023-04-30T14:00:56.441Z,36.80
2023-04-30T14:03:58.662Z,35.60
2023-04-30T14:07:02.056Z,36.36
2023-04-30T14:10:03.883Z,36.07
2023-04-30T14:13:05.564Z,33.93
2023-04-30T14:16:07.458Z,33.92
2023-04-30T14:19:09.040Z,34.06
2023-04-30T14:22:10.702Z,32.30
2023-04-30T14:25:12.319Z,32.32
2023-04-30T14:28:13.943Z,31.43
2023-04-30T14:31:15.864Z,32.53
2023-04-30T14:34:17.494Z,32.44
2023-04-30T14:37:19.740Z,32.92
2023-04-30T14:40:21.544Z,32.30
2023-04-30T14:43:23.175Z,31.37
2023-04-30T14:46:24.844Z,31.01
2023-04-30T14:49:27.029Z,31.66
2023-04-30T14:55:29.117Z,29.92
2023-04-30T14:58:30.933Z,29.76
2023-04-30T15:01:32.680Z,31.35
2023-04-30T15:04:34.305Z,30.18
2023-04-30T15:07:35.974Z,30.31
2023-04-30T15:10:37.616Z,31.45
2023-04-30T15:13:39.654Z,30.91
2023-04-30T15:16:41.289Z,30.87
2023-04-30T15:19:42.956Z,31.23
2023-04-30T15:22:44.660Z,32.52
2023-04-30T15:25:46.382Z,32.81
2023-04-30T15:28:47.985Z,33.30
2023-04-30T15:31:49.829Z,32.08
2023-04-30T15:34:51.648Z,32.74
2023-04-30T15:37:53.842Z,33.35
2023-04-30T15:40:55.565Z,33.47
2023-04-30T15:43:57.168Z,33.56
2023-04-30T15:46:58.933Z,33.73
2023-04-30T15:50:00.676Z,34.26
2023-04-30T15:53:02.268Z,34.06
2023-04-30T15:56:04.117Z,34.17
2023-04-30T15:59:05.816Z,34.85
2023-04-30T16:02:07.530Z,35.67
2023-04-30T16:05:09.424Z,35.86
2023-04-30T16:08:11.221Z,36.06
2023-04-30T16:11:13.172Z,36.31
2023-04-30T16:14:14.883Z,37.08
2023-04-30T16:17:16.697Z,36.68
2023-04-30T16:20:18.448Z,37.07
2023-04-30T16:23:20.080Z,36.92
2023-04-30T16:26:21.725Z,37.16
2023-04-30T16:29:23.346Z,38.11
2023-04-30T16:32:25.597Z,38.20
2023-04-30T16:35:27.287Z,37.83
2023-04-30T16:38:28.996Z,37.84
2023-04-30T16:41:30.641Z,38.25
2023-04-30T16:44:32.256Z,38.60
2023-04-30T16:47:33.894Z,38.30
2023-04-30T16:50:35.704Z,38.30
2023-04-30T16:53:37.648Z,38.95
2023-04-30T16:56:39.234Z,39.20
2023-04-30T16:59:40.898Z,39.45
2023-04-30T17:02:43.479Z,39.74
2023-04-30T17:05:45.167Z,39.90
2023-04-30T17:08:46.796Z,39.85
2023-04-30T17:11:48.586Z,40.09
2023-04-30T17:14:50.281Z,39.95
2023-04-30T17:17:51.964Z,39.48
2023-04-30T17:20:53.633Z,39.30
2023-04-30T17:23:56.070Z,38.92
2023-04-30T17:26:57.767Z,38.36
2023-04-30T17:29:59.449Z,39.05
2023-04-30T17:33:01.272Z,39.50
2023-04-30T17:36:02.937Z,39.88
2023-04-30T17:39:04.768Z,40.20
2023-04-30T17:42:06.401Z,40.49
2023-04-30T17:45:08.459Z,41.02
2023-04-30T17:48:10.122Z,40.91
2023-04-30T17:51:11.800Z,41.05
2023-04-30T17:54:13.397Z,41.76
2023-04-30T17:57:15.046Z,41.68
2023-04-30T18:00:16.721Z,42.20
2023-04-30T18:03:18.478Z,42.52
2023-04-30T18:06:20.214Z,43.00
2023-04-30T18:09:21.834Z,43.01
2023-04-30T18:12:23.702Z,43.08
2023-04-30T18:15:25.928Z,43.53
2023-04-30T18:18:27.725Z,43.71
2023-04-30T18:21:29.375Z,44.11
2023-04-30T18:24:31.007Z,44.17
2023-04-30T18:27:32.777Z,44.53
2023-04-30T18:30:34.935Z,44.41
2023-04-30T18:33:36.538Z,44.72
2023-04-30T18:36:38.219Z,45.10
2023-04-30T18:39:39.833Z,45.17
2023-04-30T18:42:41.544Z,44.86
2023-04-30T18:45:43.166Z,44.85
2023-04-30T18:48:44.767Z,45.18
2023-04-30T18:51:46.350Z,45.57
2023-04-30T18:54:47.810Z,46.14
2023-04-30T18:57:49.482Z,46.21
2023-04-30T19:00:51.300Z,46.52
2023-04-30T19:03:53.110Z,46.58
2023-04-30T19:06:55.184Z,46.76
2023-04-30T19:09:57.422Z,46.93
2023-04-30T19:12:59.240Z,47.19
2023-04-30T19:16:01.862Z,47.29
2023-04-30T19:19:03.589Z,47.43
2023-04-30T19:22:05.220Z,47.64
2023-04-30T19:25:06.853Z,47.97
2023-04-30T19:28:08.580Z,48.08
2023-04-30T19:31:10.569Z,48.22
2023-04-30T19:34:12.266Z,48.58
2023-04-30T19:37:13.941Z,48.69
2023-04-30T19:40:15.472Z,48.67
2023-04-30T19:43:18.021Z,48.99
2023-04-30T19:46:19.693Z,49.07
2023-04-30T19:49:21.434Z,49.03
2023-04-30T19:52:23.291Z,48.93
2023-04-30T19:55:25.041Z,49.45
2023-04-30T19:58:26.694Z,49.57
2023-04-30T20:01:28.383Z,49.80
2023-04-30T20:04:30.116Z,49.77
2023-04-30T20:07:31.768Z,50.23
2023-04-30T20:10:33.854Z,50.54
2023-04-30T20:13:35.567Z,50.72
2023-04-30T20:16:37.637Z,51.11
2023-04-30T20:19:39.393Z,51.10
2023-04-30T20:22:40.912Z,51.36
2023-04-30T20:25:43.884Z,51.71
2023-04-30T20:28:45.547Z,52.86
2023-04-30T20:31:47.081Z,53.03
2023-04-30T20:34:48.856Z,53.43
2023-04-30T20:37:50.738Z,53.47
2023-04-30T20:40:52.220Z,53.79
2023-04-30T20:43:54.172Z,53.32
2023-04-30T20:46:55.885Z,53.68
2023-04-30T20:49:57.791Z,53.88
2023-04-30T20:52:59.690Z,54.13
2023-04-30T20:56:01.381Z,54.48
2023-04-30T20:59:03.052Z,54.50
2023-04-30T21:02:04.803Z,55.18
2023-04-30T21:05:07.290Z,54.77
2023-04-30T21:08:08.954Z,55.06
2023-04-30T21:11:10.483Z,54.82
2023-04-30T21:14:12.227Z,55.41
2023-04-30T21:17:13.761Z,55.93
2023-04-30T21:20:15.681Z,56.30
2023-04-30T21:23:17.296Z,56.37
2023-04-30T21:26:19.270Z,56.89
2023-04-30T21:29:21.457Z,56.76
2023-04-30T21:32:23.092Z,56.96
2023-04-30T21:35:24.943Z,57.14
2023-04-30T21:38:26.540Z,57.21
2023-04-30T21:41:28.571Z,57.18
2023-04-30T21:44:33.450Z,56.98
2023-04-30T21:47:35.130Z,57.11
2023-04-30T21:50:36.743Z,57.30
2023-04-30T21:53:38.578Z,58.01
2023-04-30T21:56:40.082Z,57.96
2023-04-30T21:59:41.782Z,58.07
2023-04-30T22:02:43.495Z,58.03
2023-04-30T22:05:45.480Z,58.35
2023-04-30T22:08:47.297Z,58.68
2023-04-30T22:11:48.799Z,58.89
2023-04-30T22:14:54.130Z,59.11
2023-04-30T22:17:55.817Z,59.14
2023-04-30T22:20:57.693Z,60.04
2023-04-30T22:23:59.339Z,61.08
2023-04-30T22:27:00.825Z,60.04
2023-04-30T22:30:02.741Z,60.15
2023-04-30T22:33:04.426Z,59.61
2023-04-30T22:36:06.107Z,59.58
2023-04-30T22:39:07.711Z,59.22
2023-04-30T22:42:10.060Z,59.82
2023-04-30T22:45:11.783Z,60.07
2023-04-30T22:48:13.279Z,60.59
2023-04-30T22:51:14.950Z,61.84
2023-04-30T22:54:16.565Z,62.44
2023-04-30T22:57:18.167Z,63.07
2023-04-30T23:00:20.301Z,62.11
2023-04-30T23:03:22.537Z,63.24
2023-04-30T23:06:24.241Z,62.43
2023-04-30T23:09:26.124Z,61.58
2023-04-30T23:12:28.082Z,61.34
2023-04-30T23:15:29.664Z,61.75
2023-04-30T23:18:32.196Z,61.73
2023-04-30T23:21:34.554Z,61.68
2023-04-30T23:24:36.313Z,61.93
2023-04-30T23:27:37.912Z,62.98
2023-04-30T23:30:39.534Z,63.43
2023-04-30T23:33:41.421Z,62.72
2023-04-30T23:36:43.076Z,63.97
2023-04-30T23:39:44.755Z,63.81
2023-04-30T23:42:46.457Z,64.39
2023-04-30T23:45:48.034Z,63.35
2023-04-30T23:48:49.696Z,63.10
2023-04-30T23:51:51.374Z,62.87
2023-04-30T23:54:52.986Z,62.97
2023-04-30T23:57:54.686Z,62.78
